Time;durP1;ratioP1;P1;durP2;ratioP2;P2;SDS_P1;SDS_P2;PMS_P1;PMS_P2;Temp;Humidity;BMP_temperature;BMP_pressure;BME280_temperature;BME280_humidity;BME280_pressure;Samples;Min_cycle;Max_cycle;Signal;HPM_P1;HPM_P2
2021/12/15 00:02:18;;;;;;;2.22;1.60;;;-3.00;99.90;;;;;;4405364;32;20108;-71
2021/12/15 00:04:46;;;;;;;3.33;1.65;;;-3.00;99.90;;;;;;4417642;32;20511;-72
2021/12/15 00:07:13;;;;;;;1.92;1.42;;;-2.90;99.90;;;;;;4404554;32;20092;-72
2021/12/15 00:09:40;;;;;;;1.98;1.35;;;-2.90;99.90;;;;;;4417410;32;20451;-71
2021/12/15 00:12:07;;;;;;;3.87;1.90;;;-3.00;99.90;;;;;;4405151;32;20085;-72
2021/12/15 00:14:34;;;;;;;1.67;1.33;;;-2.90;99.90;;;;;;4404774;32;20078;-72
2021/12/15 00:17:01;;;;;;;2.08;1.58;;;-2.90;99.90;;;;;;4417580;32;20080;-71
2021/12/15 00:19:28;;;;;;;3.30;1.48;;;-3.00;99.90;;;;;;4413084;32;20074;-72
2021/12/15 00:21:56;;;;;;;2.97;1.95;;;-3.00;99.90;;;;;;4407040;32;20072;-72
2021/12/15 00:24:24;;;;;;;2.53;1.62;;;-3.00;99.90;;;;;;4408534;32;20090;-71
2021/12/15 00:26:55;;;;;;;3.50;1.30;;;-3.00;99.90;;;;;;4395241;32;20100;-71
2021/12/15 00:29:23;;;;;;;2.58;1.67;;;-3.00;99.90;;;;;;4394756;32;20228;-71
2021/12/15 00:31:51;;;;;;;2.50;1.60;;;-3.00;99.90;;;;;;4411031;32;20132;-71
2021/12/15 00:34:19;;;;;;;2.87;1.70;;;-3.00;99.90;;;;;;4395179;32;20595;-72
2021/12/15 00:36:47;;;;;;;3.70;1.70;;;-2.90;99.90;;;;;;4394495;32;20078;-71
2021/12/15 00:39:17;;;;;;;3.78;1.73;;;-3.00;99.90;;;;;;4407676;32;20078;-71
2021/12/15 00:41:45;;;;;;;3.42;1.83;;;-3.00;99.90;;;;;;4406741;32;20158;-71
2021/12/15 00:44:12;;;;;;;2.28;1.60;;;-2.90;99.90;;;;;;4394101;32;20081;-71
2021/12/15 00:46:39;;;;;;;2.85;1.70;;;-2.90;99.90;;;;;;4394514;32;20068;-72
2021/12/15 00:49:07;;;;;;;6.25;1.87;;;-2.90;99.90;;;;;;4395888;32;20100;-71
2021/12/15 00:51:36;;;;;;;2.10;1.50;;;-2.90;99.90;;;;;;4417373;32;20176;-72
2021/12/15 00:54:03;;;;;;;3.10;1.60;;;-3.00;99.90;;;;;;4394674;32;20491;-71
2021/12/15 00:56:29;;;;;;;2.65;1.48;;;-2.90;99.90;;;;;;4394096;32;20077;-71
2021/12/15 00:58:56;;;;;;;2.58;1.60;;;-3.00;99.90;;;;;;4406619;32;20470;-72
2021/12/15 01:01:23;;;;;;;2.80;1.65;;;-2.90;99.90;;;;;;4394249;32;20105;-72
2021/12/15 01:03:50;;;;;;;3.28;1.80;;;-2.90;99.90;;;;;;4394357;32;20084;-71
2021/12/15 01:06:18;;;;;;;3.00;1.62;;;-2.90;99.90;;;;;;4399766;32;20078;-71
2021/12/15 01:08:53;;;;;;;2.85;1.65;;;-2.90;99.90;;;;;;4410987;32;20082;-72
2021/12/15 01:12:08;;;;;;;1.73;1.37;;;-3.00;99.90;;;;;;4406787;32;20081;-69
2021/12/15 01:22:16;;;;;;;2.75;1.58;;;-2.90;99.90;;;;;;4407609;32;20170;-73
2021/12/15 01:24:42;;;;;;;4.78;1.40;;;-2.90;99.90;;;;;;4393598;32;20542;-72
2021/12/15 01:27:09;;;;;;;1.95;0.93;;;-2.90;99.90;;;;;;4393868;32;20140;-71
2021/12/15 01:29:36;;;;;;;3.45;1.42;;;-3.00;99.90;;;;;;4381360;32;20084;-72
2021/12/15 01:32:03;;;;;;;2.55;1.50;;;-3.00;99.90;;;;;;4392972;32;20086;-72
2021/12/15 01:34:29;;;;;;;1.48;1.20;;;-3.00;99.90;;;;;;4393675;32;20058;-71
2021/12/15 01:36:57;;;;;;;2.12;1.48;;;-2.90;99.90;;;;;;4406022;32;20163;-71
2021/12/15 01:39:25;;;;;;;2.65;1.17;;;-3.00;99.90;;;;;;4393894;32;20447;-70
2021/12/15 01:41:55;;;;;;;3.45;1.65;;;-3.00;99.90;;;;;;4393355;32;20548;-72
2021/12/15 01:47:03;;;;;;;2.42;1.27;;;-3.00;99.90;;;;;;4393315;32;20157;-70
2021/12/15 01:49:51;;;;;;;2.95;1.27;;;-3.00;99.90;;;;;;4393607;32;20172;-71
2021/12/15 01:52:28;;;;;;;6.28;1.60;;;-3.00;99.90;;;;;;4393467;32;20081;-71
2021/12/15 01:55:12;;;;;;;2.72;1.60;;;-3.00;99.90;;;;;;4393718;32;20077;-71
2021/12/15 01:57:41;;;;;;;2.17;1.25;;;-3.00;99.90;;;;;;4393963;32;20062;-72
2021/12/15 02:00:21;;;;;;;2.55;1.60;;;-3.00;99.90;;;;;;4381192;32;20481;-72
2021/12/15 02:02:50;;;;;;;4.40;1.75;;;-3.00;99.90;;;;;;4380528;32;20533;-71
2021/12/15 02:05:17;;;;;;;3.55;1.50;;;-3.00;99.90;;;;;;4405869;32;20089;-72
2021/12/15 02:07:47;;;;;;;3.00;1.80;;;-3.00;99.90;;;;;;4380343;32;20100;-72
2021/12/15 02:10:15;;;;;;;1.73;1.33;;;-3.00;99.90;;;;;;4393914;32;20077;-71
2021/12/15 02:12:43;;;;;;;1.60;1.40;;;-2.90;99.90;;;;;;4405651;32;20158;-71
2021/12/15 02:15:31;;;;;;;5.07;1.50;;;-3.00;99.90;;;;;;4407845;32;20096;-72
2021/12/15 02:17:59;;;;;;;4.90;1.10;;;-2.90;99.90;;;;;;4380467;32;20068;-71
2021/12/15 02:20:36;;;;;;;1.90;1.33;;;-3.00;99.90;;;;;;4393134;32;20173;-72
2021/12/15 02:23:03;;;;;;;;;;;-3.00;99.90;;;;;;4395806;32;20542;-71
2021/12/15 02:25:30;;;;;;;2.85;1.23;;;-3.00;99.90;;;;;;4402562;32;19968;-70
2021/12/15 02:27:57;;;;;;;2.33;1.30;;;-3.10;99.90;;;;;;4394360;32;20137;-72
2021/12/15 02:38:26;;;;;;;3.15;1.50;;;-3.10;99.90;;;;;;4406169;32;20078;-72
2021/12/15 02:40:52;;;;;;;2.33;1.50;;;-3.00;99.90;;;;;;4393051;32;20173;-71
2021/12/15 02:43:19;;;;;;;2.55;1.50;;;-3.10;99.90;;;;;;4404931;32;20098;-71
2021/12/15 02:45:45;;;;;;;2.90;1.67;;;-3.00;99.90;;;;;;4392660;32;20068;-71
2021/12/15 02:48:12;;;;;;;2.92;1.45;;;-3.00;99.90;;;;;;4406799;32;20065;-71
2021/12/15 02:50:38;;;;;;;5.78;1.85;;;-3.00;99.90;;;;;;4393582;32;20157;-71
2021/12/15 02:53:05;;;;;;;2.20;1.48;;;-3.00;99.90;;;;;;4406814;32;20093;-71
2021/12/15 02:55:31;;;;;;;3.03;1.67;;;-3.00;99.90;;;;;;4392942;32;20085;-71
2021/12/15 02:57:57;;;;;;;2.78;1.67;;;-3.00;99.90;;;;;;4406891;32;20169;-72
2021/12/15 03:00:32;;;;;;;2.90;1.50;;;-3.00;99.90;;;;;;4392959;32;20081;-71
2021/12/15 03:05:46;;;;;;;4.10;1.65;;;-3.00;99.90;;;;;;4406644;32;20100;-71
2021/12/15 03:08:18;;;;;;;3.53;1.77;;;-3.00;99.90;;;;;;4404530;32;20092;-71
2021/12/15 03:16:20;;;;;;;4.12;1.40;;;-3.00;99.90;;;;;;4405377;32;20085;-71
2021/12/15 03:18:47;;;;;;;4.85;1.48;;;-3.00;99.90;;;;;;4392302;32;20066;-69
2021/12/15 03:21:23;;;;;;;6.97;1.70;;;-3.10;99.90;;;;;;4392285;32;20062;-72
2021/12/15 03:23:56;;;;;;;2.53;1.50;;;-3.00;99.90;;;;;;4405037;32;20157;-71
2021/12/15 03:26:34;;;;;;;2.53;1.40;;;-3.00;99.90;;;;;;4393440;32;20150;-70
2021/12/15 03:35:01;;;;;;;3.78;1.75;;;-3.10;99.90;;;;;;4405893;32;20081;-71
2021/12/15 03:37:35;;;;;;;;;;;-3.20;99.90;;;;;;4396045;32;20535;-71
2021/12/15 03:40:06;;;;;;;5.03;1.50;;;-3.30;99.90;;;;;;4392398;32;20041;-72
2021/12/15 03:42:40;;;;;;;3.72;1.70;;;-3.40;99.90;;;;;;4392460;32;20072;-71
2021/12/15 03:45:13;;;;;;;2.85;1.48;;;-3.30;99.90;;;;;;4393383;32;20157;-71
2021/12/15 03:47:46;;;;;;;1.70;1.42;;;-3.40;99.90;;;;;;4392328;32;20148;-71
2021/12/15 03:50:17;;;;;;;2.75;1.48;;;-3.40;99.90;;;;;;4392765;32;20096;-72
2021/12/15 03:52:48;;;;;;;4.93;1.60;;;-3.40;99.90;;;;;;4405623;32;20127;-71
2021/12/15 03:55:22;;;;;;;2.15;1.50;;;-3.40;99.90;;;;;;4381662;32;20077;-71
2021/12/15 03:57:49;;;;;;;3.05;1.48;;;-3.50;99.90;;;;;;4384705;32;20065;-71
2021/12/15 04:00:17;;;;;;;1.90;1.52;;;-3.40;99.90;;;;;;4418411;32;20137;-71
2021/12/15 04:02:45;;;;;;;4.28;1.80;;;-3.50;99.90;;;;;;4397038;32;20081;-72
2021/12/15 04:05:16;;;;;;;2.70;1.30;;;-3.50;99.90;;;;;;4395188;32;20093;-70
2021/12/15 04:07:43;;;;;;;2.70;1.42;;;-3.50;99.90;;;;;;4382703;32;20502;-70
2021/12/15 04:10:13;;;;;;;3.87;1.60;;;-3.30;99.90;;;;;;4407399;32;20549;-70
2021/12/15 04:12:42;;;;;;;2.12;1.45;;;-3.40;99.90;;;;;;4395404;32;20093;-71
2021/12/15 04:16:25;;;;;;;3.12;1.50;;;-3.30;99.90;;;;;;4408740;32;20526;-72
2021/12/15 04:18:05;;;;;;;1.85;1.30;;;-3.30;99.90;;;;;;4400826;32;20523;-72
2021/12/15 04:20:36;;;;;;;3.08;1.98;;;-3.30;99.90;;;;;;4407128;32;20105;-71
2021/12/15 04:23:05;;;;;;;3.25;1.60;;;-3.30;99.90;;;;;;4395355;32;20474;-72
2021/12/15 04:25:35;;;;;;;2.60;1.87;;;-3.20;99.90;;;;;;4407331;32;20507;-72
2021/12/15 04:28:06;;;;;;;2.05;1.40;;;-3.20;99.90;;;;;;4407011;32;20085;-71
2021/12/15 04:30:39;;;;;;;4.70;1.90;;;-3.10;99.90;;;;;;4406980;32;20498;-71
2021/12/15 04:33:16;;;;;;;2.33;1.30;;;-3.20;99.90;;;;;;4407015;32;20496;-71
2021/12/15 04:35:43;;;;;;;4.35;1.85;;;-3.20;99.90;;;;;;4382073;32;20074;-71
2021/12/15 04:38:12;;;;;;;2.10;1.55;;;-3.10;99.90;;;;;;4394090;32;20097;-70
2021/12/15 04:40:41;;;;;;;3.03;1.58;;;-3.10;99.90;;;;;;4407233;32;20076;-72
2021/12/15 04:43:08;;;;;;;4.25;2.17;;;-3.00;99.90;;;;;;4381964;32;20169;-71
2021/12/15 04:45:34;;;;;;;3.50;1.50;;;-3.00;99.90;;;;;;4381942;32;20084;-72
2021/12/15 04:48:01;;;;;;;3.45;1.55;;;-3.00;99.90;;;;;;4381520;32;20073;-72
2021/12/15 04:50:31;;;;;;;3.05;1.70;;;-2.90;99.90;;;;;;4394640;32;20599;-71
2021/12/15 04:53:02;;;;;;;3.40;1.60;;;-2.90;99.90;;;;;;4407607;32;20100;-72
2021/12/15 04:55:31;;;;;;;3.80;1.50;;;-2.90;99.90;;;;;;4408370;32;20085;-72
2021/12/15 04:57:58;;;;;;;2.30;1.58;;;-2.80;99.90;;;;;;4381802;32;20074;-70
2021/12/15 05:00:29;;;;;;;1.40;1.10;;;-2.90;99.90;;;;;;4393845;32;20597;-70
2021/12/15 05:02:57;;;;;;;2.05;1.17;;;-2.90;99.90;;;;;;4381765;32;20451;-71
2021/12/15 05:05:26;;;;;;;2.10;1.25;;;-2.80;99.90;;;;;;4406215;32;20081;-71
2021/12/15 05:07:53;;;;;;;1.80;1.10;;;-2.80;99.90;;;;;;4393923;32;20090;-71
2021/12/15 05:10:21;;;;;;;2.05;1.30;;;-2.80;99.90;;;;;;4394651;32;20503;-72
2021/12/15 05:12:49;;;;;;;3.08;1.75;;;-2.80;99.90;;;;;;4406813;32;20219;-71
2021/12/15 05:15:16;;;;;;;3.87;1.75;;;-2.80;99.90;;;;;;4407536;32;20076;-72
2021/12/15 05:17:43;;;;;;;3.10;1.85;;;-2.80;99.90;;;;;;4406783;32;20066;-70
2021/12/15 05:20:10;;;;;;;3.05;1.60;;;-2.80;99.90;;;;;;4408080;32;20081;-72
2021/12/15 05:22:37;;;;;;;3.67;1.85;;;-2.70;99.90;;;;;;4406870;32;20081;-72
2021/12/15 05:25:06;;;;;;;3.47;1.40;;;-2.70;99.90;;;;;;4381502;32;20073;-71
2021/12/15 05:27:33;;;;;;;2.50;1.62;;;-2.60;99.90;;;;;;4406177;32;20081;-71
2021/12/15 05:30:00;;;;;;;3.65;1.75;;;-2.70;99.90;;;;;;4394252;32;20081;-71
2021/12/15 05:32:26;;;;;;;3.70;1.60;;;-2.70;99.90;;;;;;4407941;32;20142;-71
2021/12/15 05:34:58;;;;;;;2.03;1.50;;;-2.60;99.90;;;;;;4415807;32;20136;-71
2021/12/15 05:37:27;;;;;;;2.37;1.23;;;-2.60;99.90;;;;;;4395265;32;20081;-71
2021/12/15 05:39:54;;;;;;;2.60;1.77;;;-2.60;99.90;;;;;;4411349;32;20073;-70
2021/12/15 05:42:23;;;;;;;1.73;1.27;;;-2.60;99.90;;;;;;4396492;32;20077;-71
2021/12/15 05:44:51;;;;;;;2.53;1.62;;;-2.60;99.90;;;;;;4393986;32;20064;-72
2021/12/15 05:47:19;;;;;;;2.25;1.48;;;-2.50;99.90;;;;;;4407418;32;20585;-72
2021/12/15 05:49:48;;;;;;;2.15;1.48;;;-2.50;99.90;;;;;;4394285;32;20083;-71
2021/12/15 05:52:15;;;;;;;2.53;1.87;;;-2.50;99.90;;;;;;4393637;32;20080;-72
2021/12/15 05:54:42;;;;;;;4.60;1.77;;;-2.60;99.90;;;;;;4393674;32;20077;-72
2021/12/15 05:57:09;;;;;;;4.03;1.70;;;-2.60;99.90;;;;;;4393432;32;20077;-71
2021/12/15 05:59:35;;;;;;;4.15;1.87;;;-2.50;99.90;;;;;;4405380;32;20489;-72
2021/12/15 06:02:02;;;;;;;3.72;1.85;;;-2.50;99.90;;;;;;4394147;32;20608;-71
2021/12/15 06:04:29;;;;;;;3.75;2.00;;;-2.50;99.90;;;;;;4407390;32;20070;-72
2021/12/15 06:06:55;;;;;;;2.72;1.90;;;-2.40;99.90;;;;;;4393311;32;20518;-71
2021/12/15 06:09:21;;;;;;;3.53;1.70;;;-2.40;99.90;;;;;;4392668;32;20115;-72
2021/12/15 06:11:51;;;;;;;3.00;1.62;;;-2.40;99.90;;;;;;4406994;32;20160;-72
2021/12/15 06:14:23;;;;;;;3.35;2.00;;;-2.40;99.90;;;;;;4406393;32;20081;-71
2021/12/15 06:16:57;;;;;;;3.58;2.00;;;-2.40;99.90;;;;;;4405740;32;20174;-72
2021/12/15 06:19:24;;;;;;;3.37;1.70;;;-2.30;99.90;;;;;;4405428;32;20515;-71
2021/12/15 06:21:50;;;;;;;3.58;1.80;;;-2.40;99.90;;;;;;4405437;32;20073;-71
2021/12/15 06:24:17;;;;;;;2.80;2.00;;;-2.30;99.90;;;;;;4407034;32;20479;-70
2021/12/15 06:26:44;;;;;;;3.35;2.00;;;-2.40;99.90;;;;;;4392751;32;20440;-71
2021/12/15 06:29:10;;;;;;;4.20;2.17;;;-2.40;99.90;;;;;;4405279;32;20526;-71
2021/12/15 06:31:38;;;;;;;3.45;2.20;;;-2.40;99.90;;;;;;4380432;32;20089;-72
2021/12/15 06:34:06;;;;;;;6.75;2.40;;;-2.50;99.90;;;;;;4405376;32;20578;-71
2021/12/15 06:36:33;;;;;;;3.15;1.98;;;-2.50;99.90;;;;;;4380346;32;20187;-70
2021/12/15 06:39:01;;;;;;;2.47;1.73;;;-2.50;99.90;;;;;;4405037;32;20066;-70
2021/12/15 06:41:27;;;;;;;5.03;1.92;;;-2.50;99.90;;;;;;4405742;32;20141;-72
2021/12/15 06:43:57;;;;;;;4.68;2.30;;;-2.50;99.90;;;;;;4380693;32;20105;-71
2021/12/15 07:00:36;;;;;;;7.93;2.75;;;-2.40;99.90;;;;;;4407453;32;20095;-72
2021/12/15 07:03:03;;;;;;;5.87;2.50;;;-2.30;99.90;;;;;;4395934;32;20093;-71
2021/12/15 07:05:31;;;;;;;4.12;2.40;;;-2.40;99.90;;;;;;4383747;32;20096;-71
2021/12/15 07:07:59;;;;;;;4.53;2.60;;;-2.40;99.90;;;;;;4397013;32;20158;-71
2021/12/15 07:10:30;;;;;;;4.10;2.33;;;-2.30;99.90;;;;;;4386613;32;20103;-70
2021/12/15 07:12:57;;;;;;;4.20;2.50;;;-2.40;99.90;;;;;;4405110;32;20068;-71
2021/12/15 07:15:24;;;;;;;5.97;2.50;;;-2.30;99.90;;;;;;4404769;32;20573;-71
2021/12/15 07:18:00;;;;;;;4.05;2.40;;;-2.30;99.90;;;;;;4392382;32;20078;-72
2021/12/15 07:23:07;;;;;;;5.30;2.70;;;-2.30;99.90;;;;;;4408827;32;20164;-71
2021/12/15 07:25:34;;;;;;;5.00;2.20;;;-2.40;99.90;;;;;;4406660;32;20089;-71
2021/12/15 07:28:00;;;;;;;4.55;2.40;;;-2.30;99.90;;;;;;4392193;32;20526;-72
2021/12/15 07:30:27;;;;;;;4.45;2.30;;;-2.30;99.90;;;;;;4381612;32;20571;-71
2021/12/15 07:32:54;;;;;;;3.97;2.47;;;-2.30;99.90;;;;;;4409365;32;20069;-72
2021/12/15 07:35:21;;;;;;;4.57;2.40;;;-2.20;99.90;;;;;;4395083;32;20073;-72
2021/12/15 07:37:48;;;;;;;6.15;3.00;;;-2.30;99.90;;;;;;4408365;32;20085;-71
2021/12/15 07:40:21;;;;;;;5.60;2.70;;;-2.20;99.90;;;;;;4408313;32;20519;-71
2021/12/15 07:45:37;;;;;;;5.47;2.42;;;-2.40;99.90;;;;;;4396584;32;20070;-71
2021/12/15 07:48:06;;;;;;;4.25;2.20;;;-2.30;99.90;;;;;;4395472;32;20076;-72
2021/12/15 07:50:34;;;;;;;3.87;2.42;;;-2.30;99.90;;;;;;4394923;32;20076;-73
2021/12/15 07:53:01;;;;;;;3.90;2.30;;;-2.30;99.90;;;;;;4408073;32;20069;-71
2021/12/15 07:55:28;;;;;;;5.62;2.35;;;-2.10;99.90;;;;;;4381144;32;20183;-76
2021/12/15 07:57:54;;;;;;;4.07;2.37;;;-2.20;99.90;;;;;;4391128;32;20062;-74
2021/12/15 08:00:23;;;;;;;5.25;2.75;;;-2.20;99.90;;;;;;4380286;32;20091;-71
2021/12/15 08:02:49;;;;;;;5.45;2.20;;;-2.10;99.90;;;;;;4375806;32;20080;-75
2021/12/15 08:05:16;;;;;;;4.03;2.00;;;-2.20;99.90;;;;;;4377257;32;20157;-71
2021/12/15 08:07:43;;;;;;;6.87;2.20;;;-2.20;99.90;;;;;;4390790;32;20181;-69
2021/12/15 08:10:11;;;;;;;5.28;2.10;;;-2.20;99.90;;;;;;4385674;32;20092;-71
2021/12/15 08:12:43;;;;;;;4.40;2.20;;;-2.20;99.90;;;;;;4390945;32;20149;-71
2021/12/15 08:15:12;;;;;;;3.47;1.75;;;-2.30;99.90;;;;;;4383648;32;20150;-69
2021/12/15 08:17:41;;;;;;;1.73;1.40;;;-2.30;99.90;;;;;;4398732;32;20555;-70
2021/12/15 08:20:11;;;;;;;2.60;1.60;;;-2.30;99.90;;;;;;4382751;32;20081;-72
2021/12/15 08:22:38;;;;;;;1.48;1.35;;;-2.20;99.90;;;;;;4381815;32;20526;-71
2021/12/15 08:25:08;;;;;;;3.90;1.87;;;-2.30;99.90;;;;;;4391581;32;20087;-70
2021/12/15 08:27:34;;;;;;;2.00;1.50;;;-2.30;99.90;;;;;;4393711;32;20170;-71
2021/12/15 08:30:04;;;;;;;2.35;1.50;;;-2.30;99.90;;;;;;4397956;32;20074;-70
2021/12/15 08:32:30;;;;;;;3.95;1.12;;;-2.30;99.90;;;;;;4386757;32;20088;-70
2021/12/15 08:34:56;;;;;;;1.62;1.20;;;-2.40;99.90;;;;;;4392336;32;20078;-70
2021/12/15 08:37:23;;;;;;;4.47;1.58;;;-2.50;99.90;;;;;;4400126;32;20074;-71
2021/12/15 08:39:49;;;;;;;2.53;1.50;;;-2.40;99.90;;;;;;4394602;32;20076;-70
2021/12/15 08:42:16;;;;;;;1.87;1.30;;;-2.20;99.90;;;;;;4393583;32;20109;-70
2021/12/15 08:44:43;;;;;;;2.85;1.67;;;-2.30;99.90;;;;;;4398194;32;20062;-71
2021/12/15 08:47:10;;;;;;;2.45;1.30;;;-2.20;99.90;;;;;;4385490;32;20499;-69
2021/12/15 08:49:37;;;;;;;1.85;1.23;;;-2.20;99.90;;;;;;4381636;32;20127;-70
2021/12/15 08:54:39;;;;;;;1.53;1.17;;;-2.20;99.90;;;;;;3818066;37;20075;-71
2021/12/15 08:57:07;;;;;;;1.87;1.10;;;-2.30;99.90;;;;;;4376443;32;20161;-70
2021/12/15 08:59:34;;;;;;;2.10;1.10;;;-2.20;99.90;;;;;;4380477;32;20081;-69
2021/12/15 09:02:01;;;;;;;1.42;1.30;;;-2.10;99.90;;;;;;4378465;32;20626;-68
2021/12/15 09:04:27;;;;;;;1.20;0.70;;;-2.30;99.90;;;;;;4394618;32;20073;-71
2021/12/15 09:06:54;;;;;;;0.75;0.70;;;-2.20;99.90;;;;;;4366106;32;20150;-70
2021/12/15 09:09:21;;;;;;;1.62;1.08;;;-2.20;99.90;;;;;;4376146;32;20554;-71
2021/12/15 09:11:52;;;;;;;2.03;1.00;;;-2.20;99.90;;;;;;4367314;32;20154;-70
2021/12/15 09:14:20;;;;;;;1.12;0.65;;;-2.30;99.90;;;;;;4375295;32;20070;-71
2021/12/15 09:16:50;;;;;;;1.08;0.70;;;-2.20;99.90;;;;;;4360178;32;20483;-73
2021/12/15 09:19:17;;;;;;;1.25;0.70;;;-2.10;99.90;;;;;;4348269;32;20073;-71
2021/12/15 09:21:44;;;;;;;1.65;0.80;;;-2.10;99.90;;;;;;4352445;32;20484;-71
2021/12/15 09:24:13;;;;;;;1.05;0.70;;;-2.20;99.90;;;;;;4347000;32;20540;-71
2021/12/15 09:26:41;;;;;;;1.62;0.65;;;-2.20;99.90;;;;;;4347520;32;20074;-69
2021/12/15 09:29:08;;;;;;;1.15;0.80;;;-2.20;99.90;;;;;;4354768;32;20070;-71
2021/12/15 09:31:36;;;;;;;1.15;0.80;;;-2.20;99.90;;;;;;4358640;32;20079;-71
2021/12/15 09:34:04;;;;;;;1.48;1.10;;;-2.20;99.90;;;;;;4363833;32;20102;-69
2021/12/15 09:36:31;;;;;;;0.95;0.88;;;-2.20;99.90;;;;;;4353467;32;20069;-68
2021/12/15 09:39:13;;;;;;;1.10;0.68;;;-2.20;99.90;;;;;;4365699;32;20496;-70
2021/12/15 09:41:41;;;;;;;0.93;0.70;;;-2.30;99.90;;;;;;4355147;32;20070;-70
2021/12/15 09:44:12;;;;;;;1.48;1.02;;;-2.30;99.90;;;;;;4380114;32;20520;-69
2021/12/15 10:17:51;;;;;;;3.42;1.30;;;-2.20;99.90;;;;;;4374737;32;20066;-67
2021/12/15 10:20:26;;;;;;;2.50;1.05;;;-2.20;99.90;;;;;;4395316;32;20085;-66
2021/12/15 10:22:59;;;;;;;1.12;0.90;;;-2.30;99.90;;;;;;4388106;32;20134;-64
2021/12/15 10:25:29;;;;;;;1.73;1.08;;;-2.20;99.90;;;;;;4386898;32;20066;-66
2021/12/15 10:28:05;;;;;;;0.75;0.75;;;-2.20;99.90;;;;;;4362611;32;20066;-66
2021/12/15 10:30:38;;;;;;;1.20;0.95;;;-2.10;99.90;;;;;;4389135;32;20074;-65
2021/12/15 10:33:06;;;;;;;3.60;1.40;;;-2.00;99.90;;;;;;4387941;32;20074;-65
2021/12/15 10:35:40;;;;;;;1.90;1.00;;;-2.00;99.90;;;;;;4389537;32;20059;-64
2021/12/15 10:38:15;;;;;;;1.20;1.00;;;-2.00;99.90;;;;;;4389515;32;20086;-65
2021/12/15 10:41:17;;;;;;;1.10;0.95;;;-2.00;99.90;;;;;;4388997;32;20141;-65
2021/12/15 10:43:58;;;;;;;1.05;0.90;;;-2.10;99.90;;;;;;4388948;32;20074;-65
2021/12/15 10:46:52;;;;;;;1.67;1.20;;;-2.00;99.90;;;;;;4387730;32;20154;-64
2021/12/15 10:49:27;;;;;;;3.12;1.35;;;-1.90;99.90;;;;;;4387870;32;20082;-64
2021/12/15 10:52:02;;;;;;;1.52;1.00;;;-2.00;99.90;;;;;;4377387;32;20070;-65
2021/12/15 10:54:45;;;;;;;1.05;0.90;;;-1.90;99.90;;;;;;4376113;32;20102;-64
2021/12/15 10:57:21;;;;;;;1.80;1.30;;;-2.00;99.90;;;;;;4393885;32;20073;-64
2021/12/15 10:59:53;;;;;;;1.67;1.08;;;-1.90;99.90;;;;;;4384382;32;20105;-65
2021/12/15 11:02:27;;;;;;;0.90;0.80;;;-2.00;99.90;;;;;;4380147;32;20085;-66
2021/12/15 11:05:15;;;;;;;2.37;1.25;;;-2.00;99.90;;;;;;4384115;32;20170;-65
2021/12/15 11:07:58;;;;;;;1.83;1.30;;;-1.80;99.90;;;;;;4359455;32;20081;-65
2021/12/15 11:10:32;;;;;;;0.80;0.73;;;-1.70;99.90;;;;;;4373562;32;20066;-66
2021/12/15 11:13:06;;;;;;;1.12;1.02;;;-2.00;99.90;;;;;;4374698;32;20527;-65
2021/12/15 11:15:44;;;;;;;1.70;1.30;;;-2.10;99.90;;;;;;4371946;32;20170;-65
2021/12/15 11:18:30;;;;;;;1.45;1.00;;;-2.10;99.90;;;;;;4359125;32;20444;-65
2021/12/15 11:21:08;;;;;;;3.67;1.62;;;-2.10;99.90;;;;;;4349663;32;20073;-65
2021/12/15 11:23:35;;;;;;;2.33;1.42;;;-1.90;99.90;;;;;;4359105;32;20077;-65
2021/12/15 11:26:10;;;;;;;2.37;1.42;;;-1.90;99.90;;;;;;4364217;32;20069;-66
2021/12/15 11:28:42;;;;;;;2.62;1.27;;;-1.90;99.90;;;;;;4364378;32;20091;-65
2021/12/15 11:31:11;;;;;;;2.33;1.37;;;-2.10;99.90;;;;;;4364248;32;20066;-65
2021/12/15 11:33:44;;;;;;;1.77;1.50;;;-2.10;99.90;;;;;;4378337;32;20058;-66
2021/12/15 11:36:32;;;;;;;2.53;1.40;;;-2.10;99.90;;;;;;4354713;32;20070;-65
2021/12/15 11:39:07;;;;;;;2.97;1.83;;;-2.10;99.90;;;;;;4366790;32;20102;-65
2021/12/15 11:41:41;;;;;;;2.97;1.48;;;-2.00;99.90;;;;;;4373996;32;20070;-64
2021/12/15 11:44:13;;;;;;;2.40;1.50;;;-1.90;99.90;;;;;;4362168;32;20067;-64
2021/12/15 11:46:39;;;;;;;2.75;1.37;;;-2.00;99.90;;;;;;4383160;32;20123;-66
2021/12/15 11:49:21;;;;;;;2.85;1.60;;;-2.00;99.90;;;;;;4369217;32;20085;-64
2021/12/15 11:51:54;;;;;;;3.28;1.40;;;-2.10;99.90;;;;;;4369905;32;20150;-64
2021/12/15 11:54:30;;;;;;;3.25;1.92;;;-2.00;99.90;;;;;;4372900;32;21345;-65
2021/12/15 11:57:26;;;;;;;3.70;1.77;;;-1.90;99.90;;;;;;4369342;32;20102;-65
2021/12/15 12:00:15;;;;;;;3.83;2.10;;;-2.10;99.90;;;;;;4358222;32;20147;-65
2021/12/15 12:02:54;;;;;;;2.42;1.75;;;-2.10;99.90;;;;;;4356071;32;20527;-65
2021/12/15 12:05:48;;;;;;;3.05;2.03;;;-2.00;99.90;;;;;;4377633;32;20117;-67
2021/12/15 12:08:14;;;;;;;4.72;2.62;;;-2.00;99.90;;;;;;4363348;32;20080;-66
2021/12/15 12:10:48;;;;;;;3.35;2.00;;;-2.10;99.90;;;;;;4368044;32;20148;-67
2021/12/15 12:13:28;;;;;;;2.42;1.83;;;-2.10;99.90;;;;;;4367186;32;20078;-66
2021/12/15 12:16:05;;;;;;;3.42;2.03;;;-2.10;99.90;;;;;;4353409;32;20558;-68
2021/12/15 12:18:32;;;;;;;4.07;2.60;;;-2.20;99.90;;;;;;4372653;32;20081;-69
2021/12/15 12:21:05;;;;;;;4.93;2.80;;;-2.20;99.90;;;;;;4372193;32;20082;-69
2021/12/15 12:23:33;;;;;;;3.80;2.33;;;-2.20;99.90;;;;;;4362735;32;20118;-69
2021/12/15 12:26:05;;;;;;;4.47;2.50;;;-2.20;99.90;;;;;;4359165;32;20178;-67
2021/12/15 12:28:40;;;;;;;4.72;2.70;;;-2.30;99.90;;;;;;4371283;32;20453;-65
2021/12/15 12:31:20;;;;;;;4.43;2.28;;;-2.30;99.90;;;;;;4371274;32;20070;-68
2021/12/15 12:33:49;;;;;;;4.68;2.60;;;-2.30;99.90;;;;;;4358612;32;20508;-66
2021/12/15 12:36:28;;;;;;;4.65;2.70;;;-2.30;99.90;;;;;;4371508;32;20094;-69
2021/12/15 12:39:02;;;;;;;4.20;2.50;;;-2.30;99.90;;;;;;4371186;32;20166;-69
2021/12/15 12:41:38;;;;;;;5.20;2.50;;;-2.20;99.90;;;;;;4359313;32;20070;-67
2021/12/15 12:44:07;;;;;;;5.43;2.92;;;-2.10;99.90;;;;;;4371420;32;20085;-66
2021/12/15 12:46:52;;;;;;;3.90;2.50;;;-2.00;99.90;;;;;;4373546;32;20169;-67
2021/12/15 12:59:23;;;;;;;3.03;2.22;;;-2.10;99.90;;;;;;4365072;32;20070;-71
2021/12/15 13:01:02;;;;;;;4.40;2.47;;;-2.20;99.90;;;;;;4382522;32;20081;-67
2021/12/15 13:03:36;;;;;;;3.65;2.50;;;-2.20;99.90;;;;;;4367656;32;20096;-67
2021/12/15 13:06:13;;;;;;;4.15;2.62;;;-2.20;99.90;;;;;;4348434;32;20088;-67
2021/12/15 13:09:10;;;;;;;3.28;2.08;;;-2.10;99.90;;;;;;4372025;32;20077;-67
2021/12/15 13:11:39;;;;;;;5.57;2.28;;;-2.10;99.90;;;;;;4369047;32;20101;-67
2021/12/15 13:14:35;;;;;;;3.65;2.05;;;-2.10;99.90;;;;;;4365956;32;20053;-65
2021/12/15 13:17:08;;;;;;;3.90;2.03;;;-2.10;99.90;;;;;;4370570;32;20491;-65
2021/12/15 13:19:44;;;;;;;3.53;2.20;;;-2.00;99.90;;;;;;4367621;32;21646;-66
2021/12/15 13:31:03;;;;;;;3.28;2.20;;;-2.00;99.90;;;;;;4375970;32;20058;-66
2021/12/15 13:33:37;;;;;;;3.58;2.40;;;-2.10;99.90;;;;;;4372294;32;20062;-65
2021/12/15 13:36:05;;;;;;;3.20;2.35;;;-2.10;99.90;;;;;;4372530;32;20205;-66
2021/12/15 13:38:48;;;;;;;2.33;2.12;;;-2.00;99.90;;;;;;4366962;32;20186;-68
2021/12/15 13:44:27;;;;;;;4.65;2.50;;;-2.00;99.90;;;;;;4364646;32;20070;-68
2021/12/15 13:47:01;;;;;;;4.72;2.87;;;-1.90;99.90;;;;;;4355619;32;20085;-69
2021/12/15 13:49:39;;;;;;;4.40;2.50;;;-1.90;99.90;;;;;;4355087;32;20086;-65
2021/12/15 13:52:27;;;;;;;3.97;2.45;;;-1.90;99.90;;;;;;4370915;32;20069;-66
2021/12/15 13:55:25;;;;;;;5.28;2.70;;;-1.90;99.90;;;;;;4379364;32;20077;-68
2021/12/15 13:58:03;;;;;;;4.07;2.40;;;-1.80;99.90;;;;;;4368874;32;20558;-67
2021/12/15 14:00:47;;;;;;;4.18;2.78;;;-1.90;99.90;;;;;;4346178;32;20151;-70
2021/12/15 14:03:44;;;;;;;3.50;2.45;;;-1.70;99.90;;;;;;4356055;32;20151;-68
2021/12/15 14:06:22;;;;;;;4.78;2.70;;;-1.80;99.90;;;;;;4355618;32;20151;-68
2021/12/15 14:08:53;;;;;;;4.12;2.70;;;-1.90;99.90;;;;;;4370229;32;20554;-69
2021/12/15 14:11:33;;;;;;;3.85;2.50;;;-1.90;99.90;;;;;;4360454;32;20504;-69
2021/12/15 14:14:23;;;;;;;5.37;2.78;;;-1.80;99.90;;;;;;4380359;32;20075;-72
2021/12/15 14:16:55;;;;;;;4.70;2.92;;;-1.80;99.90;;;;;;4381925;32;20114;-70
2021/12/15 14:19:31;;;;;;;4.60;3.25;;;-1.80;99.90;;;;;;4368445;32;20098;-71
2021/12/15 14:22:04;;;;;;;4.90;3.07;;;-1.80;99.90;;;;;;4360300;32;20124;-69
2021/12/15 14:24:31;;;;;;;4.12;2.95;;;-1.80;99.90;;;;;;4372569;32;20157;-70
2021/12/15 14:26:58;;;;;;;4.68;3.08;;;-1.90;99.90;;;;;;4359757;32;20108;-72
2021/12/15 14:29:28;;;;;;;3.97;2.67;;;-2.00;99.90;;;;;;4369776;32;20050;-69
2021/12/15 14:32:00;;;;;;;3.62;2.67;;;-2.00;99.90;;;;;;4354208;32;20118;-72
2021/12/15 14:34:37;;;;;;;3.97;2.70;;;-2.10;99.90;;;;;;4368885;32;20086;-72
2021/12/15 14:37:11;;;;;;;4.05;2.87;;;-2.00;99.90;;;;;;4368523;32;20061;-70
2021/12/15 14:39:44;;;;;;;5.75;3.22;;;-2.10;99.90;;;;;;4368749;32;20085;-70
2021/12/15 14:42:21;;;;;;;6.32;3.15;;;-2.00;99.90;;;;;;4361892;32;20168;-70
2021/12/15 14:44:56;;;;;;;7.03;3.40;;;-2.10;99.90;;;;;;4363461;32;20089;-70
2021/12/15 14:47:26;;;;;;;5.30;3.35;;;-2.10;99.90;;;;;;4384664;32;20140;-69
2021/12/15 14:50:02;;;;;;;5.50;3.37;;;-2.20;99.90;;;;;;4364969;32;20077;-71
2021/12/15 14:52:34;;;;;;;6.03;3.65;;;-2.10;99.90;;;;;;4357601;32;20144;-70
2021/12/15 14:55:08;;;;;;;6.70;3.92;;;-2.20;99.90;;;;;;4374182;32;20207;-71
2021/12/15 14:57:35;;;;;;;6.57;4.10;;;-2.10;99.90;;;;;;4357255;32;20517;-72